Flight Track Log - Related Links

Times and Time Zones

All times are in EDT time to prevent confusion due to time zone crossing. See the DAL248 flight status page for this flight to view local times or setup timezone preferences in your user account.

Time Position Orientation Groundspeed Altitude Reporting Facility
EDT Latitude Longitude Course Direction KTS MPH feet Rate Location/Type
09:53PM 42.1947 -83.3767 10° North 188 216 1,500  Level Cleveland Center
09:54PM 42.1622 -83.4200 225° Southwest 233 268 3,000 2,087 Climbing Cleveland Center
09:55PM 42.1472 -83.4767 250° West 256 295 4,700 2,459 Climbing Cleveland Center
09:55PM 42.1600 -83.4986 308° West 253 291 5,500 2,754 Climbing Cleveland Center
09:56PM 42.5630 -83.2278 12° North  Level FlightAware Approximate
09:56PM 42.1922 -83.5361 319° Northwest 254 292 7,500  Level Cleveland Center
09:56PM 42.2142 -83.5572 325° Northwest 255 293 8,700 2,710 Climbing Cleveland Center
09:57PM 42.6863 -83.1879 14° North  Level FlightAware Approximate
09:57PM 42.2575 -83.5544 North 256 295 10,300  Level Cleveland Center
09:58PM 42.8104 -83.1557 10° North  Level FlightAware Approximate
09:58PM 42.3358 -83.5011 27° Northeast 306 352 11,900  Level Cleveland Center
09:59PM 42.4406 -83.4336 25° Northeast 351 404 14,700 1,664 Climbing Cleveland Center
10:05PM 43.0546 -82.9352 36° Northeast 430 495 24,100 1,507 Climbing FlightAware ADS-B (CYYZ)
10:06PM 43.1222 -82.8652 37° Northeast 438 504 25,200 1,543 Climbing FlightAware ADS-B (CYYZ)
10:06PM 43.1709 -82.8148 37° Northeast 445 512 25,900 1,377 Climbing FlightAware ADS-B (CYYZ)
10:07PM 43.2202 -82.7634 37° Northeast 453 521 26,600 825 Climbing FlightAware ADS-B (CYYZ)
10:08PM 43.3017 -82.6783 37° Northeast 457 526 27,000 300 Climbing FlightAware ADS-B (CYYZ)
10:08PM 43.3560 -82.6213 37° Northeast 454 522 27,000  Level FlightAware ADS-B (CYYZ)
10:09PM 43.4023 -82.5725 37° Northeast 452 520 27,000 814 Level FlightAware ADS-B (CYYZ)
10:09PM 43.4542 -82.5180 37° Northeast 452 520 27,800 1,143 Climbing FlightAware ADS-B (CYYZ)
10:10PM 43.5766 -82.3889 37° Northeast 450 518 29,000 304 Climbing FlightAware ADS-B (CYYZ)
10:13PM 43.8368 -82.1121 37° Northeast 450 518 29,000  Level FlightAware ADS-B (CYYZ)
10:16PM 44.0381 -81.8954 38° Northeast 444 511 29,000  Level FlightAware ADS-B (CYKF)
10:17PM 44.1983 -81.7215 38° Northeast 444 511 29,000  Level FlightAware ADS-B (CYKF)
10:18PM 44.2960 -81.6152 38° Northeast 443 510 29,000  Level FlightAware ADS-B (CYKF)
10:19PM 44.3877 -81.5146 38° Northeast 445 512 29,000  Level FlightAware ADS-B (CYKF)
10:20PM 44.4546 -81.4411 38° Northeast 445 512 29,000  Level FlightAware ADS-B (CYKF)
10:20PM 44.5017 -81.3891 38° Northeast 445 512 29,000  Level FlightAware ADS-B (CYYZ)
10:20PM 44.5404 -81.3464 38° Northeast 445 512 29,000  Level FlightAware ADS-B (CYYZ)
10:21PM 44.5701 -81.3136 38° Northeast 446 513 29,000  Level FlightAware ADS-B (CYKF)
10:21PM 44.6091 -81.2703 38° Northeast 445 512 29,000  Level FlightAware ADS-B (CYYZ)
10:21PM 44.6572 -81.2171 38° Northeast 445 512 29,000  Level FlightAware ADS-B (CYYZ)
10:22PM 44.6762 -81.1958 38° Northeast 446 513 29,000  Level FlightAware ADS-B (CYKF)
10:22PM 44.7054 -81.1634 38° Northeast 445 512 29,000  Level FlightAware ADS-B (CYYZ)
10:23PM 44.7123 -81.1557 35° Northeast 442 509 29,000  Level FlightAware ADS-B (CYKF)
10:23PM 44.7935 -81.0711 35° Northeast 442 509 29,000  Level FlightAware ADS-B (CYYZ)
10:23PM 44.8431 -81.0208 35° Northeast 441 507 29,000  Level FlightAware ADS-B (CYYZ)
10:24PM 44.8954 -80.9682 35° Northeast 440 506 29,000  Level FlightAware ADS-B (CYYZ)
10:24PM 44.9435 -80.9200 35° Northeast 440 506 29,000  Level FlightAware ADS-B (CYYZ)
10:25PM 44.9941 -80.8695 35° Northeast 440 506 29,000  Level FlightAware ADS-B (CYYZ)
10:25PM 45.0419 -80.8218 35° Northeast 440 506 29,000  Level FlightAware ADS-B (CYYZ)
10:26PM 45.0717 -80.7919 35° Northeast 441 507 29,000  Level FlightAware ADS-B (CYYZ)
10:26PM 45.1382 -80.7253 35° Northeast 441 507 29,000  Level FlightAware ADS-B (CYYZ)
10:27PM 45.1950 -80.6680 35° Northeast 442 509 29,000  Level FlightAware ADS-B (CYYZ)
10:27PM 45.2448 -80.6177 35° Northeast 443 510 29,000  Level FlightAware ADS-B (CYYZ)
10:28PM 45.2951 -80.5665 35° Northeast 442 509 29,000  Level FlightAware ADS-B (CYYZ)
10:28PM 45.3436 -80.5171 35° Northeast 441 507 29,000  Level FlightAware ADS-B (CYYZ)
10:29PM 45.3938 -80.4661 35° Northeast 440 506 29,000  Level FlightAware ADS-B (CYYZ)
10:29PM 45.4434 -80.4154 35° Northeast 439 505 29,000  Level FlightAware ADS-B (CYYZ)
10:30PM 45.4928 -80.3648 35° Northeast 439 505 29,000  Level FlightAware ADS-B (CYYZ)
10:30PM 45.5421 -80.3143 35° Northeast 437 503 29,000  Level FlightAware ADS-B (CYYZ)
10:31PM 45.5893 -80.2659 35° Northeast 437 503 29,000  Level FlightAware ADS-B (CYYZ)
10:31PM 45.6411 -80.2126 35° Northeast 436 502 29,000  Level FlightAware ADS-B (CYYZ)
10:32PM 45.6847 -80.1676 35° Northeast 436 502 29,000  Level FlightAware ADS-B (CYYZ)
10:32PM 45.7379 -80.1126 35° Northeast 436 502 29,000  Level FlightAware ADS-B (CYYZ)
10:33PM 45.7816 -80.0674 36° Northeast 436 502 29,000  Level FlightAware ADS-B (CYYZ)
10:34PM 45.8167 -80.0167 36° Northeast 430 495 29,000  Level Montreal Center
10:35PM 45.9167 -79.9000 39° Northeast 430 495 29,000  Level Montreal Center
10:36PM 46.0167 -79.8000 35° Northeast 430 495 29,000  Level Montreal Center
10:37PM 46.1167 -79.7000 35° Northeast 430 495 29,000  Level Montreal Center
10:38PM 46.2167 -79.6000 35° Northeast 430 495 29,000  Level Montreal Center
10:39PM 46.3000 -79.4833 44° Northeast 430 495 29,000  Level Montreal Center
10:40PM 46.4000 -79.3667 39° Northeast 430 495 29,000  Level Montreal Center
10:41PM 46.5000 -79.2500 39° Northeast 440 506 29,000  Level Montreal Center
10:42PM 46.5833 -79.1333 44° Northeast 440 506 29,000  Level Montreal Center
10:43PM 46.6667 -79.0167 44° Northeast 440 506 29,000  Level Montreal Center
10:44PM 46.7667 -78.8833 42° Northeast 440 506 29,000  Level Toronto Center
10:45PM 46.8667 -78.7333 46° Northeast 440 506 29,000  Level Toronto Center
10:46PM 46.9500 -78.6333 39° Northeast 440 506 29,000  Level Toronto Center
10:47PM 47.0333 -78.5333 39° Northeast 440 506 29,000  Level Montreal Center
10:48PM 47.1333 -78.4167 38° Northeast 450 518 29,000  Level Montreal Center
10:49PM 47.2167 -78.2833 47° Northeast 450 518 29,000  Level Montreal Center
10:50PM 47.3167 -78.1500 42° Northeast 450 518 29,000  Level Montreal Center
10:51PM 47.4000 -78.0333 43° Northeast 450 518 29,000  Level Montreal Center
10:52PM 47.4833 -77.9000 47° Northeast 450 518 29,000  Level Montreal Center
10:53PM 47.5833 -77.7667 42° Northeast 450 518 29,000  Level Montreal Center
10:54PM 47.6833 -77.6333 42° Northeast 450 518 29,000  Level Montreal Center
10:55PM 47.7833 -77.5167 38° Northeast 450 518 29,000  Level Montreal Center
10:56PM 47.8667 -77.4000 43° Northeast 450 518 29,000  Level Montreal Center
10:57PM 47.9500 -77.2500 50° Northeast 450 518 29,000  Level Montreal Center
10:58PM 48.0500 -77.1167 42° Northeast 460 529 29,000  Level Montreal Center
10:59PM 48.1333 -76.9667 50° Northeast 460 529 29,000  Level Montreal Center
11:00PM 48.2167 -76.8500 43° Northeast 460 529 29,000  Level Montreal Center
11:01PM 48.3333 -76.7167 37° Northeast 470 541 29,000  Level Montreal Center
11:02PM 48.4333 -76.5667 45° Northeast 470 541 29,000  Level Montreal Center
11:03PM 48.5167 -76.4500 43° Northeast 470 541 29,000  Level Montreal Center
11:04PM 48.6167 -76.3000 45° Northeast 470 541 29,000  Level Montreal Center
11:05PM 48.7167 -76.1500 45° Northeast 470 541 29,000  Level Montreal Center
11:06PM 48.8000 -76.0167 46° Northeast 480 552 29,000  Level Montreal Center
11:07PM 48.9000 -75.8667 45° Northeast 480 552 29,000  Level Montreal Center
11:08PM 49.0000 -75.7333 41° Northeast 480 552 29,000  Level Montreal Center
11:09PM 49.1000 -75.5833 44° Northeast 480 552 29,000  Level Montreal Center
11:10PM 49.1833 -75.4333 50° Northeast 480 552 29,000  Level Montreal Center
11:11PM 49.2833 -75.3000 41° Northeast 480 552 29,000  Level Montreal Center
11:12PM 49.3833 -75.1333 47° Northeast 480 552 29,000  Level Montreal Center
11:13PM 49.4667 -74.9833 49° Northeast 480 552 29,000 500 Level Montreal Center
11:14PM 49.5667 -74.8500 41° Northeast 480 552 30,000 1,200 Climbing Montreal Center
11:15PM 49.6667 -74.7000 44° Northeast 480 552 31,400 1,300 Climbing Montreal Center
11:16PM 49.7500 -74.5667 46° Northeast 490 564 32,600 1,150 Climbing Montreal Center
11:17PM 49.8667 -74.4000 43° Northeast 490 564 33,700 800 Climbing Montreal Center
11:18PM 49.9667 -74.2667 41° Northeast 500 575 34,200 476 Climbing Montreal Center
11:19PM 50.1500 -74.0167 41° Northeast 520 598 35,000 293 Climbing Montreal Center
11:20PM 50.2500 -73.8667 44° Northeast 510 587 35,000  Level Montreal Center
11:21PM 50.3667 -73.7167 39° Northeast 510 587 35,000  Level Montreal Center
11:22PM 50.4833 -73.5667 39° Northeast 510 587 35,000  Level Montreal Center
11:23PM 50.5833 -73.4167 44° Northeast 510 587 35,000  Level Montreal Center
11:24PM 50.7000 -73.2500 42° Northeast 510 587 35,000  Level Montreal Center
11:25PM 50.8000 -73.1167 40° Northeast 510 587 35,000  Level Montreal Center
11:26PM 50.9167 -72.9500 42° Northeast 510 587 35,000  Level Montreal Center
11:27PM 51.0167 -72.8000 43° Northeast 510 587 35,000  Level Montreal Center
11:28PM 51.1333 -72.6333 42° Northeast 520 598 35,000  Level Montreal Center
11:29PM 51.2333 -72.5000 40° Northeast 520 598 35,000  Level Montreal Center
11:30PM 51.3500 -72.3500 39° Northeast 520 598 35,000  Level Montreal Center
11:31PM 51.4500 -72.1833 46° Northeast 520 598 35,000  Level Montreal Center
11:32PM 51.5500 -72.0333 43° Northeast 520 598 35,000  Level Montreal Center
11:33PM 51.6667 -71.8667 42° Northeast 520 598 35,000  Level Montreal Center
11:34PM 51.7667 -71.7167 43° Northeast 520 598 35,000  Level Montreal Center
11:35PM 51.8833 -71.5667 38° Northeast 510 587 35,000  Level Montreal Center
11:37PM 52.0667 -71.3167 40° Northeast 510 587 35,000  Level Gander Center
11:38PM 52.1667 -71.1500 46° Northeast 510 587 35,000  Level Gander Center
11:39PM 52.2833 -71.0000 38° Northeast 510 587 35,000  Level Gander Center
11:40PM 52.4000 -70.8167 44° Northeast 510 587 35,000  Level Gander Center
11:41PM 52.5000 -70.6167 51° Northeast 510 587 35,000  Level Montreal Center
11:42PM 52.6000 -70.4500 45° Northeast 510 587 35,000  Level Montreal Center
11:43PM 52.7000 -70.3000 42° Northeast 510 587 35,000  Level Montreal Center
11:44PM 52.8167 -70.1333 41° Northeast 510 587 35,000  Level Montreal Center
11:45PM 52.9167 -69.9500 48° Northeast 510 587 35,000  Level Montreal Center
11:46PM 53.0167 -69.8000 42° Northeast 500 575 35,000  Level Montreal Center
11:47PM 53.1167 -69.6500 42° Northeast 500 575 35,000  Level Montreal Center
11:48PM 53.2167 -69.4667 48° Northeast 500 575 35,000  Level Montreal Center
11:49PM 53.3000 -69.3000 50° Northeast 500 575 35,000  Level Montreal Center
11:50PM 53.3833 -69.1667 44° Northeast 510 587 35,000  Level Gander Center
11:51PM 53.4833 -68.9833 47° Northeast 510 587 35,000  Level Gander Center
11:52PM 53.5667 -68.7500 59° Northeast 500 575 35,000  Level Montreal Center
11:53PM 53.6500 -68.5667 52° Northeast 510 587 35,000  Level Montreal Center
11:54PM 53.7333 -68.3833 52° Northeast 510 587 35,000  Level Montreal Center
11:55PM 53.8333 -68.1667 52° Northeast 520 598 35,000  Level Montreal Center
11:56PM 53.9167 -67.9833 52° Northeast 510 587 35,000  Level Montreal Center
11:57PM 54.0000 -67.7500 59° Northeast 520 598 35,000  Level Montreal Center
11:58PM 54.0833 -67.6167 43° Northeast 520 598 35,000  Level Gander Center
11:59PM 54.1833 -67.4333 47° Northeast 520 598 35,000  Level Gander Center
12:00AM 54.2500 -67.2167 62° Northeast 520 598 35,000  Level Gander Center
12:01AM 54.3500 -67.0167 49° Northeast 520 598 35,000  Level Gander Center
12:02AM 54.4333 -66.7667 60° Northeast 520 598 35,000  Level Montreal Center
12:03AM 54.5167 -66.5833 52° Northeast 510 587 35,000  Level Montreal Center
12:04AM 54.6000 -66.3833 54° Northeast 510 587 35,000  Level Montreal Center
12:05AM 54.6833 -66.1833 54° Northeast 480 552 35,000  Level Montreal Center
12:06AM 54.7667 -65.9833 54° Northeast 530 610 35,000  Level Montreal Center
12:07AM 54.8333 -65.8167 55° Northeast 510 587 35,000  Level Gander Center
12:08AM 54.9167 -65.6167 54° Northeast 510 587 35,000  Level Gander Center
12:09AM 55.0167 -65.4000 51° Northeast 510 587 35,000  Level Gander Center
12:10AM 55.0833 -65.2000 60° Northeast 510 587 35,000  Level Gander Center
12:11AM 55.1833 -65.0000 49° Northeast 510 587 35,000  Level Gander Center
12:12AM 55.2500 -64.8000 60° Northeast 500 575 35,000  Level Gander Center
12:13AM 55.3167 -64.6000 60° Northeast 500 575 35,000  Level Gander Center
12:14AM 55.4000 -64.4000 54° Northeast 500 575 35,000  Level Gander Center
12:15AM 55.4833 -64.2000 54° Northeast 500 575 35,000  Level Gander Center
12:16AM 55.5500 -64.0000 59° Northeast 500 575 35,000  Level Gander Center
12:17AM 55.6333 -63.7500 59° Northeast 490 564 35,000  Level Montreal Center
12:18AM 55.7167 -63.6000 45° Northeast 500 575 35,000  Level Gander Center
12:20AM 55.8500 -63.1833 60° Northeast 490 564 35,000  Level Gander Center
12:21AM 55.9167 -62.9833 59° Northeast 490 564 35,000  Level Gander Center
12:22AM 56.0000 -62.7667 55° Northeast 490 564 35,000  Level Gander Center
12:23AM 56.0667 -62.6000 54° Northeast 490 564 35,000  Level Gander Center
12:24AM 56.1500 -62.3667 57° Northeast 490 564 35,000  Level Gander Center
12:25AM 56.2167 -62.1833 57° Northeast 490 564 35,000  Level Gander Center
12:26AM 56.2833 -61.9500 63° Northeast 490 564 35,000  Level Gander Center
12:27AM 56.3500 -61.7667 57° Northeast 490 564 35,000  Level Gander Center
12:28AM 56.4333 -61.5500 55° Northeast 480 552 35,000  Level Gander Center
12:29AM 56.5000 -61.3500 59° Northeast 480 552 35,000  Level Gander Center
12:30AM 56.5667 -61.1333 61° Northeast 490 564 35,000  Level Gander Center
12:31AM 56.6333 -60.9167 61° Northeast 490 564 35,000  Level Gander Center
12:32AM 56.7167 -60.7000 55° Northeast 490 564 35,000  Level Gander Center
12:33AM 56.7833 -60.4833 61° Northeast 490 564 35,000  Level Gander Center
12:34AM 56.8500 -60.2833 59° Northeast 490 564 35,000  Level Gander Center
12:35AM 56.9333 -60.0667 55° Northeast 490 564 35,000  Level Gander Center
12:36AM 57.0000 -59.8500 60° Northeast 490 564 35,000  Level Gander Center
12:37AM 57.0667 -59.5667 66° East 480 552 35,000  Level Gander Center
12:38AM 57.1000 -59.4333 65° Northeast 470 541 35,000  Level Gander Center
12:39AM 57.1667 -59.2167 60° Northeast 480 552 35,000  Level Gander Center
12:40AM 57.1833 -59.0000 82° East 470 541 35,000  Level Gander Center
12:41AM 57.2500 -58.7167 66° East 490 564 35,000  Level Gander Center
12:42AM 57.2667 -58.4667 83° East 490 564 35,000  Level Gander Center
12:43AM 57.3167 -58.2167 70° East 500 575 35,000  Level Gander Center
12:44AM 57.3333 -58.0000 82° East 490 564 35,000  Level Gander Center
12:45AM 57.3667 -57.7500 76° East 490 564 35,000  Level Gander Center
12:46AM 57.4000 -57.5000 76° East 480 552 35,000  Level Gander Center
12:47AM 57.4167 -57.2500 83° East 490 564 35,000  Level Gander Center
12:48AM 57.4500 -57.0000 76° East 490 564 35,000  Level Gander Center
12:49AM 57.4500 -56.7500 90° East 490 564 35,000  Level Gander Center
12:50AM 57.5000 -56.5000 69° East 490 564 35,000  Level Gander Center
12:51AM 57.5500 -56.2500 69° East 500 575 35,000  Level Gander Center
12:52AM 57.5500 -56.0000 90° East 500 575 35,000  Level Gander Center
12:53AM 57.5667 -55.7500 83° East 490 564 35,000  Level Gander Center
12:54AM 57.6000 -55.4833 77° East 490 564 35,000  Level Gander Center
12:55AM 57.6167 -55.2667 82° East 490 564 35,000  Level Gander Center
12:56AM 57.6333 -55.0167 83° East 500 575 35,000  Level Gander Center
12:57AM 57.6333 -54.7667 90° East 490 564 35,000 20 Level Gander Center
12:59AM 57.6610 -54.4762 80° East  Level FlightAware Approximate
01:06AM 57.8056 -52.8195 80° East  Level FlightAware Approximate
01:07AM 57.8245 -52.5818 81° East  Level FlightAware Approximate
01:08AM 57.8430 -52.3439 82° East  Level FlightAware Approximate
01:09AM 57.8610 -52.1057 82° East  Level FlightAware Approximate
01:10AM 57.8785 -51.8672 82° East  Level FlightAware Approximate
01:11AM 57.8956 -51.6286 82° East  Level FlightAware Approximate
01:12AM 57.9123 -51.3897 82° East  Level FlightAware Approximate
01:13AM 57.9285 -51.1506 83° East  Level FlightAware Approximate
01:14AM 57.9442 -50.9113 83° East  Level FlightAware Approximate
01:15AM 57.9595 -50.6717 83° East  Level FlightAware Approximate
01:16AM 57.9744 -50.4320 83° East  Level FlightAware Approximate
01:17AM 57.9888 -50.1921 83° East  Level FlightAware Approximate
01:18AM 58.0016 -49.9524 86° East  Level FlightAware Approximate
01:19AM 58.0097 -49.7112 86° East  Level FlightAware Approximate
01:20AM 58.0172 -49.4700 87° East  Level FlightAware Approximate
01:21AM 58.0243 -49.2286 87° East  Level FlightAware Approximate
01:22AM 58.0309 -48.9872 87° East  Level FlightAware Approximate
01:23AM 58.0371 -48.7457 87° East  Level FlightAware Approximate
01:24AM 58.0429 -48.5041 87° East  Level FlightAware Approximate
01:25AM 58.0481 -48.2624 88° East  Level FlightAware Approximate
01:26AM 58.0529 -48.0206 88° East  Level FlightAware Approximate
01:27AM 58.0573 -47.7788 88° East  Level FlightAware Approximate
01:28AM 58.0612 -47.5369 88° East  Level FlightAware Approximate
01:29AM 58.0646 -47.2950 88° East  Level FlightAware Approximate
01:30AM 58.0680 -47.0531 88° East  Level FlightAware Approximate
01:31AM 58.0717 -46.8111 88° East  Level FlightAware Approximate
01:32AM 58.0749 -46.5691 88° East  Level FlightAware Approximate
01:33AM 58.0776 -46.3270 89° East  Level FlightAware Approximate
01:34AM 58.0799 -46.0850 89° East  Level FlightAware Approximate
01:35AM 58.0818 -45.8429 89° East  Level FlightAware Approximate
01:36AM 58.0832 -45.6007 89° East  Level FlightAware Approximate
01:37AM 58.0841 -45.3586 89° East  Level FlightAware Approximate
01:38AM 58.0846 -45.1164 90° East  Level FlightAware Approximate
01:39AM 58.0846 -44.8743 90° East  Level FlightAware Approximate
01:40AM 58.0841 -44.6321 90° East  Level FlightAware Approximate
01:41AM 58.0832 -44.3900 90° East  Level FlightAware Approximate
01:42AM 58.0818 -44.1479 91° East  Level FlightAware Approximate
01:43AM 58.0800 -43.9058 91° East  Level FlightAware Approximate
01:44AM 58.0777 -43.6637 91° East  Level FlightAware Approximate
01:45AM 58.0750 -43.4216 91° East  Level FlightAware Approximate
01:46AM 58.0718 -43.1796 91° East  Level FlightAware Approximate
01:47AM 58.0681 -42.9377 92° East  Level FlightAware Approximate
01:48AM 58.0647 -42.6957 91° East  Level FlightAware Approximate
01:49AM 58.0612 -42.4538 91° East  Level FlightAware Approximate
01:50AM 58.0573 -42.2119 92° East  Level FlightAware Approximate
01:51AM 58.0529 -41.9701 92° East  Level FlightAware Approximate
01:52AM 58.0481 -41.7284 92° East  Level FlightAware Approximate
01:53AM 58.0428 -41.4867 92° East  Level FlightAware Approximate
01:54AM 58.0370 -41.2451 92° East  Level FlightAware Approximate
01:55AM 58.0308 -41.0036 93° East  Level FlightAware Approximate
01:56AM 58.0241 -40.7621 93° East  Level FlightAware Approximate
01:57AM 58.0170 -40.5208 93° East  Level FlightAware Approximate
01:58AM 58.0094 -40.2795 93° East  Level FlightAware Approximate
01:59AM 58.0013 -40.0384 94° East  Level FlightAware Approximate
02:00AM 58.0078 -39.7974 86° East  Level FlightAware Approximate
02:01AM 58.0167 -39.5563 86° East  Level FlightAware Approximate
02:02AM 58.0251 -39.3151 86° East  Level FlightAware Approximate
02:03AM 58.0330 -39.0738 86° East  Level FlightAware Approximate
02:04AM 58.0405 -38.8324 87° East  Level FlightAware Approximate
02:05AM 58.0476 -38.5909 87° East  Level FlightAware Approximate
02:06AM 58.0541 -38.3492 87° East  Level FlightAware Approximate
02:07AM 58.0602 -38.1076 87° East  Level FlightAware Approximate
02:08AM 58.0659 -37.8658 87° East  Level FlightAware Approximate
02:09AM 58.0711 -37.6239 88° East  Level FlightAware Approximate
02:10AM 58.0759 -37.3820 88° East  Level FlightAware Approximate
02:11AM 58.0802 -37.1400 88° East  Level FlightAware Approximate
02:12AM 58.0840 -36.8980 88° East  Level FlightAware Approximate
02:13AM 58.0873 -36.6559 88° East  Level FlightAware Approximate
02:14AM 58.0903 -36.4138 89° East  Level FlightAware Approximate
02:15AM 58.0927 -36.1716 89° East  Level FlightAware Approximate
02:16AM 58.0947 -35.9295 89° East  Level FlightAware Approximate
02:17AM 58.0962 -35.6872 89° East  Level FlightAware Approximate
02:18AM 58.0973 -35.4450 89° East  Level FlightAware Approximate
02:19AM 58.0979 -35.2028 90° East  Level FlightAware Approximate
02:20AM 58.0981 -34.9605 90° East  Level FlightAware Approximate
02:21AM 58.0978 -34.7183 90° East  Level FlightAware Approximate
02:22AM 58.0970 -34.4760 90° East  Level FlightAware Approximate
02:23AM 58.0958 -34.2338 90° East  Level FlightAware Approximate
02:24AM 58.0941 -33.9916 91° East  Level FlightAware Approximate
02:25AM 58.0920 -33.7494 91° East  Level FlightAware Approximate
02:26AM 58.0894 -33.5073 91° East  Level FlightAware Approximate
02:27AM 58.0863 -33.2652 91° East  Level FlightAware Approximate
02:28AM 58.0828 -33.0231 91° East  Level FlightAware Approximate
02:29AM 58.0788 -32.7811 92° East  Level FlightAware Approximate
02:30AM 58.0744 -32.5391 92° East  Level FlightAware Approximate
02:31AM 58.0695 -32.2972 92° East  Level FlightAware Approximate
02:32AM 58.0641 -32.0554 92° East  Level FlightAware Approximate
02:33AM 58.0583 -31.8137 92° East  Level FlightAware Approximate
02:34AM 58.0520 -31.5720 93° East  Level FlightAware Approximate
02:35AM 58.0453 -31.3304 93° East  Level FlightAware Approximate
02:36AM 58.0381 -31.0889 93° East  Level FlightAware Approximate
02:37AM 58.0305 -30.8476 93° East  Level FlightAware Approximate
02:38AM 58.0224 -30.6063 94° East  Level FlightAware Approximate
02:39AM 58.0138 -30.3651 94° East  Level FlightAware Approximate
02:40AM 58.0048 -30.1241 94° East  Level FlightAware Approximate
02:41AM 57.9931 -29.8836 96° East  Level FlightAware Approximate
02:42AM 57.9789 -29.6479 96° East  Level FlightAware Approximate
02:43AM 57.9643 -29.4125 97° East  Level FlightAware Approximate
02:44AM 57.9492 -29.1773 97° East  Level FlightAware Approximate
02:45AM 57.9337 -28.9423 97° East  Level FlightAware Approximate
02:46AM 57.9177 -28.7075 97° East  Level FlightAware Approximate
02:47AM 57.9013 -28.4729 97° East  Level FlightAware Approximate
02:48AM 57.8845 -28.2386 98° East  Level FlightAware Approximate
02:49AM 57.8672 -28.0044 98° East  Level FlightAware Approximate
02:50AM 57.8495 -27.7705 98° East  Level FlightAware Approximate
02:51AM 57.8314 -27.5368 98° East  Level FlightAware Approximate
02:52AM 57.8129 -27.3034 98° East  Level FlightAware Approximate
02:53AM 57.7939 -27.0702 99° East  Level FlightAware Approximate
02:54AM 57.7745 -26.8372 99° East  Level FlightAware Approximate
02:55AM 57.7547 -26.6045 99° East  Level FlightAware Approximate
02:56AM 57.7345 -26.3720 99° East  Level FlightAware Approximate
02:57AM 57.7138 -26.1399 99° East  Level FlightAware Approximate
02:58AM 57.6927 -25.9079 100° East  Level FlightAware Approximate
02:59AM 57.6712 -25.6763 100° East  Level FlightAware Approximate
03:00AM 57.6492 -25.4449 100° East  Level FlightAware Approximate
03:01AM 57.6268 -25.2138 100° East  Level FlightAware Approximate
03:02AM 57.6041 -24.9830 100° East  Level FlightAware Approximate
03:03AM 57.5808 -24.7525 101° East  Level FlightAware Approximate
03:04AM 57.5572 -24.5223 101° East  Level FlightAware Approximate
03:05AM 57.5332 -24.2924 101° East  Level FlightAware Approximate
03:06AM 57.5087 -24.0628 101° East  Level FlightAware Approximate
03:07AM 57.4838 -23.8335 101° East  Level FlightAware Approximate
03:08AM 57.4585 -23.6045 102° East  Level FlightAware Approximate
03:09AM 57.4328 -23.3758 102° East  Level FlightAware Approximate
03:10AM 57.4067 -23.1475 102° East  Level FlightAware Approximate
03:11AM 57.3802 -22.9195 102° East  Level FlightAware Approximate
03:12AM 57.3532 -22.6918 102° East  Level FlightAware Approximate
03:13AM 57.3259 -22.4645 102° East  Level FlightAware Approximate
03:14AM 57.2981 -22.2375 103° East  Level FlightAware Approximate
03:15AM 57.2699 -22.0108 103° East  Level FlightAware Approximate
03:16AM 57.2413 -21.7845 103° East  Level FlightAware Approximate
03:17AM 57.2123 -21.5586 103° East  Level FlightAware Approximate
03:18AM 57.1830 -21.3330 103° East  Level FlightAware Approximate
03:19AM 57.1532 -21.1077 104° East  Level FlightAware Approximate
03:20AM 57.1230 -20.8829 104° East  Level FlightAware Approximate
03:21AM 57.0924 -20.6584 104° East  Level FlightAware Approximate
03:22AM 57.0614 -20.4342 104° East  Level FlightAware Approximate
03:23AM 57.0299 -20.2105 104° East  Level FlightAware Approximate
03:24AM 56.9989 -19.9868 99° East  Level FlightAware Approximate
03:25AM 56.9793 -19.7589 99° East  Level FlightAware Approximate
03:26AM 56.9594 -19.5317 99° East  Level FlightAware Approximate
03:27AM 56.9391 -19.3048 99° East  Level FlightAware Approximate
03:28AM 56.9183 -19.0781 99° East  Level FlightAware Approximate
03:29AM 56.8971 -18.8517 100° East  Level FlightAware Approximate
03:30AM 56.8756 -18.6255 100° East  Level FlightAware Approximate
03:31AM 56.8553 -18.3991 99° East  Level FlightAware Approximate
03:32AM 56.8358 -18.1726 99° East  Level FlightAware Approximate
03:33AM 56.8158 -17.9462 99° East  Level FlightAware Approximate
03:34AM 56.7955 -17.7202 99° East  Level FlightAware Approximate
03:35AM 56.7747 -17.4944 99° East  Level FlightAware Approximate
03:36AM 56.7536 -17.2688 100° East  Level FlightAware Approximate
03:37AM 56.7320 -17.0435 100° East  Level FlightAware Approximate
03:38AM 56.7100 -16.8185 100° East  Level FlightAware Approximate
03:39AM 56.6876 -16.5937 100° East  Level FlightAware Approximate
03:40AM 56.6648 -16.3692 100° East  Level FlightAware Approximate
03:41AM 56.6416 -16.1449 101° East  Level FlightAware Approximate
03:42AM 56.6180 -15.9210 101° East  Level FlightAware Approximate
03:43AM 56.5941 -15.6973 101° East  Level FlightAware Approximate
03:44AM 56.5697 -15.4739 101° East  Level FlightAware Approximate
03:45AM 56.5449 -15.2508 101° East  Level FlightAware Approximate
03:46AM 56.5197 -15.0280 101° East  Level FlightAware Approximate
03:47AM 56.4941 -14.8055 102° East  Level FlightAware Approximate
03:48AM 56.4681 -14.5833 102° East  Level FlightAware Approximate
03:49AM 56.4417 -14.3614 102° East  Level FlightAware Approximate
03:50AM 56.4149 -14.1398 102° East  Level FlightAware Approximate
03:51AM 56.3877 -13.9185 102° East  Level FlightAware Approximate
03:52AM 56.3602 -13.6976 103° East  Level FlightAware Approximate
03:53AM 56.3322 -13.4769 103° East  Level FlightAware Approximate
03:54AM 56.3038 -13.2562 103° East  Level FlightAware Approximate
03:55AM 56.2750 -13.0357 103° East  Level FlightAware Approximate
03:56AM 56.2458 -12.8156 103° East  Level FlightAware Approximate
03:57AM 56.2162 -12.5958 104° East  Level FlightAware Approximate
03:58AM 56.1862 -12.3764 104° East  Level FlightAware Approximate
03:59AM 56.1558 -12.1573 104° East  Level FlightAware Approximate
04:00AM 56.1251 -11.9385 104° East  Level FlightAware Approximate
04:01AM 56.0940 -11.7201 104° East  Level FlightAware Approximate
04:02AM 56.0624 -11.5021 104° East  Level FlightAware Approximate
04:03AM 56.0305 -11.2844 105° East  Level FlightAware Approximate
04:04AM 55.9982 -11.0670 105° East  Level FlightAware Approximate
04:05AM 55.9656 -10.8501 105° East  Level FlightAware Approximate
04:06AM 55.9325 -10.6335 105° East  Level FlightAware Approximate
04:07AM 55.8991 -10.4173 105° East  Level FlightAware Approximate
04:08AM 55.8653 -10.2014 106° East  Level FlightAware Approximate
04:09AM 55.8310 -9.9860 106° East  Level FlightAware Approximate
04:10AM 55.7956 -9.7713 106° East  Level FlightAware Approximate
04:11AM 55.7598 -9.5571 106° East  Level FlightAware Approximate
04:12AM 55.7237 -9.3432 107° East  Level FlightAware Approximate
04:13AM 55.6871 -9.1298 107° East  Level FlightAware Approximate
04:13AM 55.2654 -9.6302 107° East 458 527 39,000  Level FlightAware ADS-B (EGPH / EDI)
04:14AM 55.2472 -9.5247 107° East 457 526 39,000  Level FlightAware ADS-B (EGPH / EDI)
04:15AM 55.2220 -9.3812 107° East 457 526 39,000  Level FlightAware ADS-B
04:15AM 55.1965 -9.2347 107° East 456 525 39,000  Level FlightAware ADS-B
04:16AM 55.1764 -9.1240 107° East 454 522 39,000  Level FlightAware ADS-B (EGPH / EDI)
04:17AM 55.1473 -8.9597 107° East 455 524 39,000  Level FlightAware ADS-B
04:17AM 55.1207 -8.8129 108° East 452 520 39,000  Level FlightAware ADS-B
04:18AM 55.0973 -8.7858 108° East 452 520 39,000  Level FlightAware UK
04:18AM 55.0974 -8.6844 107° East 451 519 39,000  Level FlightAware ADS-B (EGPH / EDI)
04:19AM 55.0644 -8.5036 108° East 448 516 39,000 -74 Level FlightAware ADS-B
04:19AM 55.0429 -8.4753 108° East 446 513 38,900  Descending FlightAware UK
04:19AM 55.0383 -8.3618 108° East 445 512 39,000 171 Climbing FlightAware ADS-B
04:20AM 55.0270 -8.3005 108° East 443 510 39,000  Level FlightAware ADS-B
04:20AM 54.9965 -8.1371 108° East 442 509 39,000 -71 Level FlightAware ADS-B
04:21AM 54.9701 -8.0709 108° East 442 509 38,900  Descending FlightAware UK
04:21AM 54.9625 -7.9555 108° East 442 509 39,000 115 Climbing FlightAware ADS-B
04:22AM 54.9328 -7.7980 108° East 441 507 39,000  Level FlightAware ADS-B
04:22AM 54.9224 -7.7442 109° East 441 507 39,000  Level FlightAware ADS-B
04:23AM 54.9012 -7.6336 108° East 440 506 39,000 -76 Level FlightAware ADS-B
04:24AM 54.8775 -7.5672 108° East 440 506 38,900  Descending FlightAware UK
04:24AM 54.8666 -7.4528 109° East 440 506 39,000 128 Climbing FlightAware ADS-B
04:25AM 54.8410 -7.3206 108° East 440 506 39,000  Level FlightAware ADS-B
04:25AM 54.8191 -7.2064 108° East 440 506 39,000 -82 Level FlightAware ADS-B
04:26AM 54.8018 -7.1654 108° East 442 509 38,900  Descending FlightAware UK
04:26AM 54.7900 -7.0573 109° East 442 509 39,000 103 Climbing FlightAware ADS-B
04:27AM 54.7573 -6.8910 109° East 443 510 39,000 -74 Level FlightAware ADS-B
04:27AM 54.7438 -6.8633 109° East 444 511 38,900  Descending FlightAware UK
04:27AM 54.7286 -6.7461 109° East 444 511 39,000 162 Climbing FlightAware ADS-B
04:28AM 54.7113 -6.6586 108° East 444 511 39,000  Level FlightAware ADS-B
04:29AM 54.6881 -6.5036 101° East 449 517 39,000  Level FlightAware ADS-B
04:29AM 54.6755 -6.3870 99° East 449 517 39,000  Level FlightAware ADS-B
04:30AM 54.6611 -6.2514 100° East 449 517 39,000  Level FlightAware ADS-B
04:30AM 54.6470 -6.1345 104° East 448 516 39,000  Level FlightAware ADS-B (KNKX)
04:31AM 54.6365 -6.0935 104° East 446 513 39,000  Level FlightAware UK
04:31AM 54.6186 -5.9694 107° East 446 513 39,000  Level FlightAware ADS-B
04:32AM 54.5935 -5.8342 107° East 444 511 39,000  Level FlightAware ADS-B
04:32AM 54.5733 -5.7260 108° East 446 513 39,000  Level FlightAware ADS-B
04:33AM 54.5521 -5.6118 108° East 446 513 39,000  Level FlightAware ADS-B
04:34AM 54.5291 -5.4885 107° East 443 510 39,000  Level FlightAware ADS-B
04:34AM 54.5050 -5.3598 108° East 445 512 39,000  Level FlightAware ADS-B
04:35AM 54.4794 -5.2327 113° Southeast 443 510 39,000  Level FlightAware ADS-B
04:35AM 54.4490 -5.1311 120° Southeast 441 507 39,000  Level FlightAware ADS-B
04:36AM 54.4146 -5.0307 121° Southeast 440 506 39,000  Level FlightAware ADS-B
04:37AM 54.3814 -4.9360 121° Southeast 440 506 39,000  Level FlightAware ADS-B
04:37AM 54.3399 -4.8181 121° Southeast 439 505 39,000  Level FlightAware ADS-B
04:38AM 54.3080 -4.7270 121° Southeast 439 505 39,000  Level FlightAware ADS-B
04:38AM 54.2789 -4.6441 121° Southeast 438 504 39,000  Level FlightAware ADS-B
04:39AM 54.2434 -4.5431 121° Southeast 438 504 39,000  Level FlightAware ADS-B
04:39AM 54.2096 -4.4477 121° Southeast 439 505 39,000  Level FlightAware ADS-B
04:40AM 54.1808 -4.3660 121° Southeast 439 505 39,000  Level FlightAware ADS-B
04:40AM 54.1348 -4.2363 122° Southeast 440 506 39,000  Level FlightAware ADS-B
04:41AM 54.1146 -4.1812 121° Southeast 436 502 39,000  Level FlightAware ADS-B
04:41AM 54.0804 -4.0878 122° Southeast 441 507 39,000  Level FlightAware ADS-B (EGXU / HRT)
04:42AM 54.0417 -3.9818 121° Southeast 437 503 39,000  Level FlightAware ADS-B
04:42AM 54.0078 -3.8890 122° Southeast 442 509 39,000  Level FlightAware ADS-B (EGXU / HRT)
04:43AM 53.9876 -3.8343 122° Southeast 442 509 39,000  Level FlightAware ADS-B
04:43AM 53.9810 -3.8159 122° Southeast 442 509 39,000  Level FlightAware ADS-B (EGXU / HRT)
04:43AM 53.9642 -3.7669 119° Southeast 443 510 39,000  Level FlightAware ADS-B
04:44AM 53.9397 -3.6727 111° Southeast 447 514 39,000  Level FlightAware ADS-B
04:44AM 53.9359 -3.6557 110° East 447 514 39,000  Level FlightAware ADS-B (EGCW)
04:44AM 53.9046 -3.5078 109° East 448 516 39,000  Level FlightAware ADS-B (EGXU / HRT)
04:45AM 53.8757 -3.3687 110° East 448 516 39,000  Level FlightAware ADS-B
04:45AM 53.8784 -3.3819 110° East 448 516 39,000  Level FlightAware ADS-B (EGCC / MAN)
04:46AM 53.8480 -3.2381 109° East 446 513 39,000  Level FlightAware ADS-B (EGPH / EDI)
04:46AM 53.8365 -3.1834 109° East 445 512 39,000  Level FlightAware ADS-B
04:47AM 53.8171 -3.0925 110° East 447 514 39,000  Level FlightAware ADS-B (EGCW)
04:47AM 53.8202 -3.1070 110° East 447 514 39,000  Level FlightAware ADS-B (EGNT / NCL)
04:47AM 53.8029 -3.0258 109° East 445 512 39,000  Level FlightAware ADS-B
04:47AM 53.7967 -2.9969 109° East 445 512 39,000  Level FlightAware ADS-B
04:47AM 53.7827 -2.9311 110° East 447 514 39,000  Level FlightAware ADS-B
04:48AM 53.7960 -2.9924 110° East 447 514 39,000  Level FlightAware ADS-B (EGGP / LPL)
04:48AM 53.7510 -2.7839 110° East 446 513 39,000  Level FlightAware ADS-B (EGGP / LPL)
04:48AM 53.7391 -2.7296 110° East 447 514 39,000  Level FlightAware ADS-B
04:48AM 53.7360 -2.7148 109° East 443 510 39,000  Level FlightAware ADS-B
04:49AM 53.7139 -2.6129 110° East 446 513 39,000  Level FlightAware ADS-B
04:49AM 53.7105 -2.5976 110° East 447 514 39,000  Level FlightAware ADS-B
04:49AM 53.7051 -2.5722 110° East 446 513 39,000  Level FlightAware ADS-B (EGXU / HRT)
04:49AM 53.6917 -2.5107 109° East 443 510 39,000  Level FlightAware ADS-B
04:50AM 53.6693 -2.4089 110° East 445 512 39,000  Level FlightAware ADS-B (EGXU / HRT)
04:51AM 53.6451 -2.2982 110° East 445 512 39,000  Level FlightAware ADS-B (EGNT / NCL)
04:51AM 53.6246 -2.2061 110° East 445 512 39,000  Level FlightAware ADS-B (EGGP / LPL)
04:51AM 53.6191 -2.1806 110° East 442 509 39,000  Level FlightAware ADS-B
04:52AM 53.5962 -2.0778 110° East 442 509 39,000  Level FlightAware ADS-B
04:52AM 53.5910 -2.0549 110° East 442 509 39,000  Level FlightAware ADS-B (YWST)
04:52AM 53.5869 -2.0356 110° East 444 511 39,000  Level FlightAware ADS-B
04:52AM 53.5635 -1.9316 111° Southeast 444 511 39,000  Level FlightAware ADS-B
04:52AM 53.5608 -1.9197 111° Southeast 444 511 39,000  Level FlightAware ADS-B
04:53AM 53.5579 -1.9068 110° East 441 507 39,000  Level FlightAware ADS-B
04:53AM 53.5502 -1.8721 110° East 444 511 39,000  Level FlightAware ADS-B (EGNT / NCL)
04:53AM 53.5365 -1.8055 108° East 445 512 39,000  Level FlightAware ADS-B
04:53AM 53.5347 -1.7956 108° East 446 513 39,000  Level FlightAware ADS-B
04:53AM 53.5286 -1.7618 107° East 447 514 39,000  Level FlightAware ADS-B (EGNT / NCL)
04:54AM 53.5196 -1.7103 105° East 445 512 39,000  Level FlightAware ADS-B
04:54AM 53.5156 -1.6861 105° East 445 512 39,000  Level FlightAware ADS-B
04:54AM 53.5077 -1.6397 105° East 447 514 39,000  Level FlightAware ADS-B
04:54AM 53.5031 -1.6126 106° East 448 516 39,000  Level FlightAware ADS-B
04:54AM 53.4904 -1.5364 105° East 446 513 39,000  Level FlightAware ADS-B
04:55AM 53.4796 -1.4729 106° East 448 516 39,000  Level FlightAware ADS-B
04:55AM 53.4785 -1.4661 105° East 446 513 39,000  Level FlightAware ADS-B
04:55AM 53.4743 -1.4408 105° East 446 513 39,000  Level FlightAware ADS-B
04:55AM 53.4697 -1.4145 105° East 446 513 39,000  Level FlightAware ADS-B
04:56AM 53.4550 -1.3269 106° East 448 516 39,000  Level FlightAware ADS-B (EGNT / NCL)
04:56AM 53.4460 -1.2737 106° East 449 517 39,000  Level FlightAware ADS-B
04:56AM 53.4392 -1.2341 106° East 448 516 39,000  Level FlightAware ADS-B
04:56AM 53.4288 -1.1730 106° East 448 516 39,000  Level FlightAware ADS-B
04:57AM 53.4095 -1.0623 106° East 448 516 39,000  Level FlightAware ADS-B
04:57AM 53.4089 -1.0592 106° East 448 516 39,000  Level FlightAware ADS-B (EGGP / LPL)
04:57AM 53.3968 -0.9848 106° East 448 516 39,000  Level FlightAware ADS-B (EGXU / HRT)
04:57AM 53.3949 -0.9673 101° East 450 518 39,000  Level FlightAware ADS-B
04:58AM 53.3830 -0.8361 99° East 450 518 39,000  Level FlightAware ADS-B
04:58AM 53.3781 -0.7854 98° East 449 517 39,000  Level FlightAware ADS-B (EGSR)
04:59AM 53.3736 -0.7392 99° East 451 519 39,000  Level FlightAware ADS-B
04:59AM 53.3585 -0.5795 99° East 452 520 39,000  Level FlightAware ADS-B
04:59AM 53.3581 -0.5746 99° East 452 520 39,000  Level FlightAware ADS-B (EGGP / LPL)
05:00AM 53.3494 -0.4820 99° East 452 520 39,000  Level FlightAware ADS-B
05:00AM 53.3379 -0.3633 98° East 450 518 39,000  Level FlightAware ADS-B
05:00AM 53.3358 -0.3418 98° East 450 518 39,000  Level FlightAware ADS-B (LERS / REU)
05:01AM 53.3257 -0.2379 99° East 451 519 39,000  Level FlightAware ADS-B
05:01AM 53.3221 -0.2027 100° East 451 519 39,000  Level FlightAware ADS-B
05:01AM 53.3217 -0.1995 100° East 451 519 39,000  Level FlightAware ADS-B
05:02AM 53.3111 -0.0924 100° East 451 519 39,000  Level FlightAware ADS-B
05:02AM 53.3110 -0.0906 100° East 451 519 39,000  Level FlightAware ADS-B
05:02AM 53.3053 -0.0348 99° East 451 519 39,000  Level FlightAware ADS-B
05:02AM 53.3023 -0.0074 99° East 452 520 39,000  Level FlightAware ADS-B
05:02AM 53.3003 0.0119 100° East 453 521 39,000  Level FlightAware ADS-B
05:02AM 53.2975 0.0388 100° East 453 521 39,000  Level FlightAware ADS-B (EGLF / FAB)
05:03AM 53.2893 0.1197 100° East 453 521 39,000  Level FlightAware ADS-B
05:03AM 53.2797 0.2134 100° East 454 522 39,000  Level FlightAware ADS-B
05:03AM 53.2769 0.2394 100° East 455 524 39,000  Level FlightAware ADS-B
05:04AM 53.2687 0.3181 99° East 453 521 39,000  Level FlightAware ADS-B (LERS / REU)
05:04AM 53.2620 0.3809 100° East 455 524 39,000  Level FlightAware ADS-B
05:04AM 53.2607 0.3933 100° East 455 524 39,000  Level FlightAware ADS-B
05:04AM 53.2507 0.4855 100° East 455 524 39,000  Level FlightAware ADS-B
05:05AM 53.2462 0.5265 100° East 455 524 39,000  Level FlightAware ADS-B
05:05AM 53.2393 0.5910 100° East 455 524 39,000  Level FlightAware ADS-B
05:05AM 53.2354 0.6267 100° East 455 524 39,000  Level FlightAware ADS-B (EGLF / FAB)
05:06AM 53.2239 0.7332 101° East 455 524 39,000  Level FlightAware ADS-B
05:06AM 53.2244 0.7282 100° East 455 524 39,000  Level FlightAware ADS-B
05:06AM 53.2189 0.7699 105° East 453 521 39,000  Level FlightAware ADS-B
05:06AM 53.2161 0.7869 105° East 453 521 39,000  Level FlightAware ADS-B
05:06AM 53.2096 0.8262 105° East 453 521 39,000  Level FlightAware ADS-B
05:06AM 53.2041 0.8590 105° East 454 522 39,000  Level FlightAware ADS-B (EGLF / FAB)
05:07AM 53.1905 0.9419 105° East 454 522 39,000  Level FlightAware ADS-B
05:07AM 53.1720 1.0545 105° East 455 524 39,000  Level FlightAware ADS-B
05:07AM 53.1818 0.9941 105° East 455 524 39,000  Level FlightAware ADS-B
05:08AM 53.1553 1.1558 105° East 453 521 39,000 -158 Level FlightAware ADS-B
05:08AM 53.1485 1.1975 105° East 452 520 38,900 -774 Descending FlightAware ADS-B (EGSR)
05:08AM 53.1384 1.2586 105° East 451 519 38,600 -1,347 Descending FlightAware ADS-B
05:09AM 53.1221 1.3614 105° East 452 520 37,800 -1,459 Descending FlightAware ADS-B
05:09AM 53.1186 1.3829 105° East 452 520 37,700 -1,313 Descending FlightAware ADS-B (LERS / REU)
05:09AM 53.1053 1.4708 104° East 450 518 37,100 -1,263 Descending FlightAware ADS-B
05:09AM 53.1001 1.5069 105° East 452 520 36,900 -1,161 Descending FlightAware ADS-B (LERS / REU)
05:10AM 53.0915 1.5712 102° East 442 509 36,500 -1,527 Descending FlightAware ADS-B
05:10AM 53.0763 1.6924 102° East 440 506 35,500 -1,714 Descending FlightAware ADS-B
05:10AM 53.0708 1.7329 103° East 441 507 35,100 -2,093 Descending FlightAware ADS-B
05:11AM 53.0575 1.8316 102° East 440 506 34,000 -2,250 Descending FlightAware ADS-B
05:11AM 53.0566 1.8383 103° East 445 512 33,900 -2,647 Descending FlightAware ADS-B
05:12AM 53.0085 1.8487 103° East 450 518 32,500 -2,791 Descending FlightAware UK
05:12AM 53.0390 1.9676 103° East 452 520 31,900 -2,512 Descending FlightAware ADS-B
05:12AM 53.0220 2.0893 103° East 456 525 30,700 -1,941 Descending FlightAware ADS-B (EGSR)
05:13AM 53.0041 2.2139 104° East 448 516 29,700 -1,944 Descending FlightAware ADS-B
05:13AM 52.9893 2.3141 106° East 445 512 28,400 -2,750 Descending FlightAware ADS-B (EGLF / FAB)
05:14AM 52.9792 2.3713 110° East 418 481 27,500 -2,091 Descending FlightAware ADS-B
05:15AM 52.9109 2.4295 110° East 394 453 26,100 -2,096 Descending FlightAware UK
05:15AM 52.9656 2.4365 112° Southeast 387 445 24,600 -2,618 Descending FlightAware ADS-B (EGSR)
05:15AM 52.9361 2.5645 112° Southeast 366 421 23,700 -1,200 Descending FlightAware ADS-B (EGLF / FAB)
05:16AM 52.8718 2.5916 112° Southeast 368 423 24,000 -1,756 Climbing FlightAware UK
05:16AM 52.8487 2.6847 112° Southeast 378 435 22,500 -1,909 Descending FlightAware UK
05:17AM 52.8288 2.7654 112° Southeast 380 437 21,900 -1,077 Descending FlightAware UK
05:17AM 52.8557 2.8919 112° Southeast 378 435 21,800 -1,000 Descending FlightAware ADS-B
05:18AM 52.7855 2.9412 112° Southeast 376 433 20,800 -1,116 Descending FlightAware UK
05:18AM 52.7998 3.1167 113° Southeast 373 429 20,200 -1,600 Descending FlightAware ADS-B
05:19AM 52.7839 3.1797 113° Southeast 369 425 19,200 -1,905 Descending FlightAware ADS-B
05:19AM 52.7761 3.2104 113° Southeast 369 425 18,200 -1,784 Descending FlightAware ADS-B
05:20AM 52.7302 3.3902 113° Southeast 363 418 17,000 -1,726 Descending FlightAware ADS-B
05:21AM 52.7119 3.4617 113° Southeast 359 413 16,100 -1,672 Descending FlightAware ADS-B
05:21AM 52.6911 3.5419 113° Southeast 356 410 15,300 -1,737 Descending FlightAware ADS-B
05:22AM 52.6326 3.5504 113° Southeast 340 391 13,900 -1,636 Descending FlightAware UK
05:22AM 52.6584 3.6676 113° Southeast 335 386 13,800 -1,424 Descending FlightAware ADS-B
05:23AM 52.6321 3.7685 114° Southeast 319 367 12,500 -1,586 Descending FlightAware ADS-B
05:23AM 52.5772 3.7670 114° Southeast 322 371 11,500 -1,636 Descending FlightAware UK
05:23AM 52.6001 3.8881 114° Southeast 323 372 11,300 -1,622 Descending FlightAware ADS-B
05:24AM 52.5829 3.9523 114° Southeast 323 372 10,500 -1,000 Descending FlightAware ADS-B (LRBS / BBU)
05:24AM 52.5695 4.0020 114° Southeast 317 365 10,300 -1,130 Descending FlightAware ADS-B
05:25AM 52.5458 4.0904 111° Southeast 283 326 9,200 -1,636 Descending FlightAware ADS-B
05:25AM 52.5360 4.1287 113° Southeast 285 328 8,800 -1,765 Descending FlightAware ADS-B (LRBS / BBU)
05:26AM 52.5271 4.1635 112° Southeast 282 325 8,200 -1,895 Descending FlightAware ADS-B (LRBS / BBU)
05:26AM 52.5164 4.2058 113° Southeast 278 320 7,600 -1,833 Descending FlightAware ADS-B (LRBS / BBU)
05:26AM 52.5125 4.2213 113° Southeast 275 316 7,100 -1,742 Descending FlightAware ADS-B
05:27AM 52.5008 4.2664 113° Southeast 273 314 6,700 -1,696 Descending FlightAware ADS-B
05:27AM 52.4857 4.3233 113° Southeast 268 308 5,800 -1,826 Descending FlightAware ADS-B (LRBS / BBU)
05:27AM 52.4789 4.3494 113° Southeast 267 307 5,300 -2,049 Descending FlightAware ADS-B (LRBS / BBU)
05:28AM 52.4698 4.3806 141° Southeast 260 299 4,400 -1,643 Descending FlightAware ADS-B
05:29AM 52.4067 4.4643 145° Southeast 257 296 3,000 -1,071 Descending FlightAware ADS-B (LRBS / BBU)
05:30AM 52.3295 4.5505 146° Southeast 234 269 1,900 -387 Descending FlightAware ADS-B
05:31AM 52.2708 4.6156 145° Southeast 216 249 2,000 76 Climbing FlightAware ADS-B
05:31AM 52.2666 4.6202 99° East 172 198 2,000 -600 Level FlightAware ADS-B
05:31AM 52.2639 4.6232 146° Southeast 176 203 1,900 -88 Descending FlightAware ADS-B (EGHH / BOH)
05:33AM 52.2542 4.6995 89° East 169 194 1,900 -421 Level FlightAware ADS-B
05:33AM 52.2290 4.6398 89° East 188 216 1,100 -971 Descending FlightAware UK
05:34AM 52.2641 4.6653 24° Northeast 1251 1440 800 -1,000 Descending FlightAware UK

Login

Don't have an account? Register now (free) for customized features, flight alerts, and more!